createdAt,value
2017-09-04T00:01:03.075Z,10.63
2017-09-04T00:03:30.599Z,10.57
2017-09-04T00:05:58.079Z,10.10
2017-09-04T00:08:25.559Z,10.05
2017-09-04T00:10:53.062Z,10.38
2017-09-04T00:13:20.567Z,9.68
2017-09-04T00:15:49.003Z,11.70
2017-09-04T00:18:16.507Z,10.23
2017-09-04T00:20:44.001Z,12.82
2017-09-04T00:23:11.511Z,10.52
2017-09-04T00:25:39.007Z,11.00
2017-09-04T00:28:07.418Z,10.27
2017-09-04T00:30:34.924Z,9.98
2017-09-04T00:33:02.423Z,10.05
2017-09-04T00:35:29.911Z,9.43
2017-09-04T00:37:57.414Z,9.82
2017-09-04T00:40:24.920Z,9.30
2017-09-04T00:42:52.418Z,9.55
2017-09-04T00:45:20.865Z,8.70
2017-09-04T00:47:48.351Z,10.85
2017-09-04T00:50:15.864Z,9.65
2017-09-04T00:52:43.350Z,9.50
2017-09-04T00:55:10.841Z,11.32
2017-09-04T00:57:38.342Z,9.90
2017-09-04T01:00:06.774Z,10.82
2017-09-04T01:02:34.301Z,11.88
2017-09-04T01:05:01.806Z,10.75
2017-09-04T01:07:29.314Z,12.02
2017-09-04T01:09:56.810Z,12.07
2017-09-04T01:12:24.322Z,12.82
2017-09-04T01:14:51.811Z,12.48
2017-09-04T01:17:19.319Z,13.20
2017-09-04T01:19:46.831Z,12.52
2017-09-04T01:22:16.302Z,12.05
2017-09-04T01:24:43.790Z,15.20
2017-09-04T01:27:11.303Z,12.40
2017-09-04T01:29:38.803Z,12.20
2017-09-04T01:32:06.286Z,12.10
2017-09-04T01:34:35.742Z,11.07
2017-09-04T01:37:03.227Z,13.65
2017-09-04T01:39:30.711Z,11.70
2017-09-04T01:41:58.235Z,12.70
2017-09-04T01:44:25.727Z,13.40
2017-09-04T01:46:53.213Z,11.52
2017-09-04T01:49:20.732Z,11.05
2017-09-04T01:51:48.211Z,11.70
2017-09-04T01:54:15.714Z,10.82
2017-09-04T01:56:43.219Z,11.52
2017-09-04T01:59:11.687Z,11.55
2017-09-04T02:01:39.215Z,10.02
2017-09-04T02:04:06.702Z,10.20
2017-09-04T02:06:34.201Z,10.43
2017-09-04T02:09:01.683Z,12.73
2017-09-04T02:11:29.183Z,10.80
2017-09-04T02:13:56.659Z,11.02
2017-09-04T02:16:24.174Z,11.73
2017-09-04T02:18:51.658Z,11.98
2017-09-04T02:21:19.167Z,10.25
2017-09-04T02:23:46.688Z,9.85
2017-09-04T02:26:14.210Z,11.10
2017-09-04T02:28:41.695Z,9.45
2017-09-04T02:31:09.175Z,14.85
2017-09-04T02:33:41.748Z,10.43
2017-09-04T02:36:09.223Z,9.20
2017-09-04T02:38:36.704Z,9.50
2017-09-04T02:41:04.214Z,11.25
2017-09-04T02:43:31.695Z,10.13
2017-09-04T02:45:59.183Z,11.85
2017-09-04T02:48:26.690Z,11.05
2017-09-04T02:50:54.202Z,11.38
2017-09-04T02:53:21.695Z,11.10
2017-09-04T02:55:49.195Z,12.10
2017-09-04T02:58:16.681Z,11.80
2017-09-04T03:00:44.190Z,11.05
2017-09-04T03:03:12.614Z,11.75
2017-09-04T03:05:40.123Z,11.65
2017-09-04T03:08:07.622Z,10.60
2017-09-04T03:10:35.130Z,10.23
2017-09-04T03:13:02.611Z,11.77
2017-09-04T03:15:30.131Z,10.50
2017-09-04T03:17:57.617Z,11.55
2017-09-04T03:20:25.107Z,12.65
2017-09-04T03:22:52.617Z,13.73
2017-09-04T03:25:20.099Z,11.82
2017-09-04T03:27:47.599Z,14.48
2017-09-04T03:30:15.111Z,11.32
2017-09-04T03:32:42.598Z,12.40
2017-09-04T03:35:10.104Z,11.40
2017-09-04T03:37:37.623Z,12.35
2017-09-04T03:40:06.054Z,11.80
2017-09-04T03:42:33.554Z,11.73
2017-09-04T03:45:03.031Z,14.32
2017-09-04T03:47:30.523Z,12.95
2017-09-04T03:49:58.030Z,13.55
2017-09-04T03:52:25.538Z,13.27
2017-09-04T03:54:53.046Z,13.55
2017-09-04T03:57:20.535Z,12.15
2017-09-04T03:59:48.058Z,12.50
2017-09-04T04:02:15.542Z,11.73
2017-09-04T04:04:43.051Z,13.45
2017-09-04T04:07:10.535Z,10.48
2017-09-04T04:09:40.023Z,11.15
2017-09-04T04:12:08.466Z,12.18
2017-09-04T04:14:35.957Z,10.77
2017-09-04T04:17:03.473Z,10.45
2017-09-04T04:19:30.963Z,10.23
2017-09-04T04:21:58.454Z,11.75
2017-09-04T04:24:25.959Z,10.38
2017-09-04T04:26:53.444Z,12.00
2017-09-04T04:29:20.934Z,15.40
2017-09-04T04:31:50.452Z,13.38
2017-09-04T04:34:17.936Z,13.40
2017-09-04T04:36:45.419Z,13.05
2017-09-04T04:39:14.847Z,13.73
2017-09-04T04:41:42.330Z,12.40
2017-09-04T04:44:09.827Z,13.40
2017-09-04T04:46:37.307Z,12.80
2017-09-04T04:49:04.816Z,13.15
2017-09-04T04:51:33.235Z,13.95
2017-09-04T04:54:00.759Z,14.63
2017-09-04T04:56:28.302Z,15.27
2017-09-04T04:58:55.826Z,15.95
2017-09-04T05:01:23.319Z,14.20
2017-09-04T05:03:50.831Z,12.52
2017-09-04T05:06:18.331Z,12.95
2017-09-04T05:08:45.859Z,13.70
2017-09-04T05:11:13.670Z,13.98
2017-09-04T05:13:41.182Z,15.25
2017-09-04T05:16:08.722Z,13.25
2017-09-04T05:18:36.202Z,13.10
2017-09-04T05:21:03.729Z,15.13
2017-09-04T05:23:31.225Z,14.40
2017-09-04T05:25:58.732Z,14.07
2017-09-04T05:28:26.214Z,14.05
2017-09-04T05:30:53.706Z,13.00
2017-09-04T05:33:21.187Z,13.55
2017-09-04T05:35:48.723Z,13.35
2017-09-04T05:38:16.213Z,14.85
2017-09-04T05:40:43.723Z,14.77
2017-09-04T05:43:11.228Z,18.55
2017-09-04T05:45:38.718Z,18.05
2017-09-04T05:48:06.230Z,16.50
2017-09-04T05:50:33.761Z,18.95
2017-09-04T05:53:01.247Z,17.58
2017-09-04T05:55:28.779Z,17.42
2017-09-04T05:57:56.283Z,16.25
2017-09-04T06:00:23.771Z,15.73
2017-09-04T06:02:51.311Z,16.17
2017-09-04T06:05:18.810Z,16.10
2017-09-04T06:07:46.353Z,14.15
2017-09-04T06:10:13.854Z,14.00
2017-09-04T06:12:41.354Z,15.95
2017-09-04T06:15:08.869Z,13.30
2017-09-04T06:17:36.358Z,14.27
2017-09-04T06:20:05.814Z,16.25
2017-09-04T06:22:33.302Z,12.77
2017-09-04T06:25:00.817Z,14.10
2017-09-04T06:27:28.313Z,13.27
2017-09-04T06:29:57.771Z,13.40
2017-09-04T06:32:25.260Z,13.32
2017-09-04T06:34:52.783Z,12.77
2017-09-04T06:37:20.279Z,11.75
2017-09-04T06:39:47.794Z,13.02
2017-09-04T06:42:15.282Z,13.62
2017-09-04T06:44:42.798Z,13.32
2017-09-04T06:47:10.300Z,11.70
2017-09-04T06:49:37.807Z,9.90
2017-09-04T06:52:05.295Z,10.80
2017-09-04T06:54:32.815Z,10.38
2017-09-04T06:57:00.340Z,12.20
2017-09-04T06:59:27.853Z,10.98
2017-09-04T07:01:55.386Z,11.80
2017-09-04T07:04:22.881Z,13.82
2017-09-04T07:06:51.352Z,12.67
2017-09-04T07:09:18.877Z,12.10
2017-09-04T07:11:46.383Z,12.90
2017-09-04T07:14:13.917Z,11.32
2017-09-04T07:16:41.402Z,10.60
2017-09-04T07:19:08.914Z,11.97
2017-09-04T07:21:36.427Z,12.43
2017-09-04T07:24:03.933Z,12.13
2017-09-04T07:26:31.430Z,10.57
2017-09-04T07:28:58.947Z,11.20
2017-09-04T07:31:26.435Z,11.47
2017-09-04T07:33:53.947Z,11.02
2017-09-04T07:36:22.378Z,11.10
2017-09-04T07:38:49.890Z,11.57
2017-09-04T07:41:17.375Z,11.30
2017-09-04T07:43:44.884Z,11.43
2017-09-04T07:46:12.374Z,11.80
2017-09-04T07:48:39.883Z,11.97
2017-09-04T07:51:07.383Z,12.53
2017-09-04T07:53:34.874Z,11.83
2017-09-04T07:56:02.382Z,11.37
2017-09-04T07:58:29.880Z,12.70
2017-09-04T08:00:59.335Z,11.47
2017-09-04T08:03:26.819Z,12.83
2017-09-04T08:05:54.307Z,13.30
2017-09-04T08:08:21.830Z,11.80
2017-09-04T08:10:49.319Z,11.63
2017-09-04T08:13:16.829Z,13.93
2017-09-04T08:15:44.315Z,12.20
2017-09-04T08:18:12.739Z,9.70
2017-09-04T08:20:40.244Z,10.33
2017-09-04T08:23:07.768Z,10.90
2017-09-04T08:25:35.266Z,10.77
2017-09-04T08:28:02.770Z,11.10
2017-09-04T08:30:30.258Z,12.47
2017-09-04T08:32:57.768Z,11.27
2017-09-04T08:35:25.267Z,14.20
2017-09-04T08:37:52.763Z,10.00
2017-09-04T08:40:20.271Z,12.67
2017-09-04T08:42:47.766Z,12.30
2017-09-04T08:45:15.280Z,11.57
2017-09-04T08:47:42.827Z,15.17
2017-09-04T08:50:10.321Z,13.10
2017-09-04T08:52:39.831Z,15.23
2017-09-04T08:55:07.327Z,18.20
2017-09-04T08:57:34.827Z,13.57
2017-09-04T09:00:02.346Z,11.37
2017-09-04T09:02:29.834Z,11.43
2017-09-04T09:04:57.321Z,11.30
2017-09-04T09:07:24.837Z,14.03
2017-09-04T09:09:52.338Z,14.90
2017-09-04T09:12:19.853Z,11.93
2017-09-04T09:14:47.351Z,11.67
2017-09-04T09:17:14.858Z,9.53
2017-09-04T09:19:42.370Z,12.83
2017-09-04T09:22:09.878Z,12.57
2017-09-04T09:24:37.366Z,14.07
2017-09-04T09:27:04.886Z,11.70
2017-09-04T09:29:32.395Z,12.17
2017-09-04T09:31:59.891Z,12.07
2017-09-04T09:34:27.403Z,11.37
2017-09-04T09:36:54.919Z,11.60
2017-09-04T09:39:22.416Z,10.53
2017-09-04T09:41:49.930Z,10.07
2017-09-04T09:44:17.427Z,10.40
2017-09-04T09:46:44.934Z,9.20
2017-09-04T09:49:12.423Z,10.60
2017-09-04T09:51:39.910Z,8.00
2017-09-04T09:54:07.414Z,8.80
2017-09-04T09:56:34.910Z,10.47
2017-09-04T09:59:02.418Z,8.70
2017-09-04T10:01:30.861Z,8.37
2017-09-04T10:03:58.347Z,8.10
2017-09-04T10:06:25.882Z,8.40
2017-09-04T10:08:53.375Z,10.50
2017-09-04T10:11:22.794Z,6.37
2017-09-04T10:13:50.294Z,10.57
2017-09-04T10:16:17.788Z,6.47
2017-09-04T10:18:45.294Z,8.37
2017-09-04T10:21:12.779Z,6.10
2017-09-04T10:23:40.271Z,9.27
2017-09-04T10:26:07.780Z,7.27
2017-09-04T10:28:35.263Z,8.40
2017-09-04T10:31:02.767Z,10.30
2017-09-04T10:33:30.266Z,7.47
2017-09-04T10:35:57.755Z,8.00
2017-09-04T10:38:25.275Z,7.87
2017-09-04T10:40:52.773Z,6.83
2017-09-04T10:43:20.262Z,6.00
2017-09-04T10:45:47.770Z,7.97
2017-09-04T10:48:15.250Z,7.80
2017-09-04T10:50:42.755Z,5.33
2017-09-04T10:53:10.270Z,6.30
2017-09-04T10:55:37.760Z,4.77
2017-09-04T10:58:05.266Z,5.37
2017-09-04T11:00:32.766Z,7.07
2017-09-04T11:03:00.270Z,9.80
2017-09-04T11:05:28.324Z,5.07
2017-09-04T11:07:55.811Z,4.70
2017-09-04T11:10:23.298Z,5.10
2017-09-04T11:12:50.811Z,3.80
2017-09-04T11:15:18.294Z,3.60
2017-09-04T11:17:45.798Z,4.87
2017-09-04T11:20:13.283Z,3.60
2017-09-04T11:22:40.792Z,5.00
2017-09-04T11:25:08.307Z,5.77
2017-09-04T11:27:35.814Z,3.43
2017-09-04T11:30:03.303Z,4.47
2017-09-04T11:32:30.816Z,5.10
2017-09-04T11:34:58.299Z,3.50
2017-09-04T11:37:25.811Z,3.43
2017-09-04T11:39:54.251Z,3.50
2017-09-04T11:42:21.779Z,4.60
2017-09-04T11:44:49.267Z,4.57
2017-09-04T11:47:17.684Z,4.10
2017-09-04T11:49:45.175Z,3.43
2017-09-04T11:52:12.706Z,4.40
2017-09-04T11:54:40.199Z,7.20
2017-09-04T11:57:07.722Z,3.30
2017-09-04T11:59:35.230Z,2.93
2017-09-04T12:02:02.744Z,3.90
2017-09-04T12:04:30.227Z,3.87
2017-09-04T12:06:57.734Z,4.23
2017-09-04T12:09:25.223Z,4.60
2017-09-04T12:11:52.735Z,4.00
2017-09-04T12:14:21.167Z,4.30
2017-09-04T12:16:48.674Z,5.43
2017-09-04T12:19:16.171Z,3.63
2017-09-04T12:21:44.629Z,3.73
2017-09-04T12:24:12.115Z,2.80
2017-09-04T12:26:39.626Z,3.47
2017-09-04T12:29:08.063Z,3.10
2017-09-04T12:31:35.570Z,4.40
2017-09-04T12:34:03.063Z,3.47
2017-09-04T12:36:31.590Z,3.53
2017-09-04T12:38:59.074Z,4.30
2017-09-04T12:41:26.583Z,4.87
2017-09-04T12:43:54.980Z,3.87
2017-09-04T12:46:22.488Z,3.80
2017-09-04T12:48:49.998Z,4.40
2017-09-04T12:51:17.515Z,7.93
2017-09-04T12:53:45.008Z,3.47
2017-09-04T12:56:12.556Z,3.50
2017-09-04T12:58:40.047Z,4.30
2017-09-04T13:01:07.583Z,4.10
2017-09-04T13:03:35.069Z,3.90
2017-09-04T13:06:02.562Z,4.50
2017-09-04T13:08:30.059Z,6.07
2017-09-04T13:14:08.870Z,4.03
2017-09-04T13:16:42.141Z,4.63
2017-09-04T13:19:16.166Z,4.27
2017-09-04T13:21:49.446Z,4.70
2017-09-04T13:24:22.574Z,3.70
2017-09-04T13:26:55.814Z,3.77
2017-09-04T13:29:29.059Z,2.70
2017-09-04T13:32:03.210Z,3.13
2017-09-04T13:34:36.489Z,3.13
2017-09-04T13:37:05.907Z,5.17
2017-09-04T13:39:40.970Z,2.63
2017-09-04T13:45:27.258Z,3.13
2017-09-04T13:48:00.404Z,3.50
2017-09-04T13:50:47.657Z,3.60
2017-09-04T13:53:20.846Z,4.20
2017-09-04T13:55:54.054Z,4.40
2017-09-04T13:58:22.474Z,4.03
2017-09-04T14:00:55.787Z,3.87
2017-09-04T14:06:28.953Z,3.20
2017-09-04T14:09:02.087Z,3.37
2017-09-04T14:11:48.174Z,6.23
2017-09-04T14:14:22.170Z,5.17
2017-09-04T14:16:53.159Z,3.07
2017-09-04T14:19:20.698Z,3.10
2017-09-04T14:21:48.196Z,3.00
2017-09-04T14:24:15.753Z,3.10
2017-09-04T14:26:43.957Z,2.93
2017-09-04T14:29:11.498Z,3.30
2017-09-04T14:31:39.935Z,3.10
2017-09-04T14:34:07.487Z,3.70
2017-09-04T14:36:34.986Z,3.30
2017-09-04T14:39:02.503Z,6.07
2017-09-04T14:41:30.004Z,3.33
2017-09-04T14:44:03.219Z,3.10
2017-09-04T14:46:36.412Z,2.73
2017-09-04T14:49:03.919Z,3.00
2017-09-04T14:51:31.419Z,3.50
2017-09-04T14:53:58.919Z,2.87
2017-09-04T14:56:26.423Z,4.30
2017-09-04T14:58:53.921Z,3.80
2017-09-04T15:01:21.427Z,3.80
2017-09-04T15:03:48.958Z,4.13
2017-09-04T15:06:16.442Z,3.30
2017-09-04T15:08:43.950Z,3.37
2017-09-04T15:11:11.438Z,4.60
2017-09-04T15:13:38.971Z,3.47
2017-09-04T15:16:06.502Z,3.93
2017-09-04T15:18:34.010Z,2.80
2017-09-04T15:21:01.514Z,3.80
2017-09-04T15:23:29.004Z,2.90
2017-09-04T15:25:56.503Z,2.90
2017-09-04T15:28:24.011Z,2.90
2017-09-04T15:30:51.503Z,2.77
2017-09-04T15:33:19.019Z,3.17
2017-09-04T15:35:46.534Z,3.20
2017-09-04T15:38:14.023Z,5.73
2017-09-04T15:40:41.534Z,2.90
2017-09-04T15:43:09.026Z,3.13
2017-09-04T15:45:36.521Z,5.60
2017-09-04T15:48:04.030Z,4.37
2017-09-04T15:50:31.549Z,3.50
2017-09-04T15:52:59.066Z,9.70
2017-09-04T15:55:26.570Z,4.57
2017-09-04T15:57:54.060Z,3.23
2017-09-04T16:00:21.558Z,4.90
2017-09-04T16:02:49.066Z,3.93
2017-09-04T16:05:16.552Z,4.67
2017-09-04T16:07:45.665Z,5.20
2017-09-04T16:10:13.182Z,3.27
2017-09-04T16:12:41.150Z,4.87
2017-09-04T16:15:14.502Z,3.73
2017-09-04T16:17:47.691Z,4.43
2017-09-04T16:20:15.195Z,4.40
2017-09-04T16:22:44.299Z,3.60
2017-09-04T16:25:13.262Z,4.50
2017-09-04T16:27:44.200Z,5.63
2017-09-04T16:30:13.188Z,4.47
2017-09-04T16:32:46.413Z,3.93
2017-09-04T16:35:14.514Z,5.40
2017-09-04T16:41:04.893Z,4.47
2017-09-04T16:43:34.027Z,3.97
2017-09-04T16:46:18.327Z,3.83
2017-09-04T16:49:04.489Z,5.20
2017-09-04T16:51:32.894Z,5.13
2017-09-04T16:54:01.954Z,8.13
2017-09-04T16:56:29.459Z,6.10
2017-09-04T16:58:57.875Z,5.03
2017-09-04T17:01:25.370Z,5.33
2017-09-04T17:03:52.923Z,4.70
2017-09-04T17:06:20.411Z,4.40
2017-09-04T17:08:51.649Z,4.27
2017-09-04T17:11:19.955Z,5.03
2017-09-04T17:13:47.460Z,4.63
2017-09-04T17:16:15.018Z,5.13
2017-09-04T17:18:48.085Z,6.83
2017-09-04T17:21:15.602Z,4.67
2017-09-04T17:23:43.607Z,4.20
2017-09-04T17:26:12.052Z,4.80
2017-09-04T17:28:39.557Z,3.80
2017-09-04T17:31:07.063Z,4.30
2017-09-04T17:33:34.543Z,5.30
2017-09-04T17:36:02.042Z,4.20
2017-09-04T17:38:29.559Z,4.07
2017-09-04T17:40:57.068Z,10.20
2017-09-04T17:43:24.634Z,5.40
2017-09-04T17:45:52.249Z,3.90
2017-09-04T17:48:19.795Z,3.97
2017-09-04T17:50:47.394Z,4.00
2017-09-04T17:53:14.918Z,7.13
2017-09-04T17:55:42.511Z,4.20
2017-09-04T17:58:10.084Z,4.10
2017-09-04T18:00:37.678Z,4.17
2017-09-04T18:03:05.293Z,4.00
2017-09-04T18:05:32.825Z,5.50
2017-09-04T18:08:00.427Z,3.30
2017-09-04T18:10:27.992Z,4.63
2017-09-04T18:12:55.544Z,3.40
2017-09-04T18:15:23.122Z,3.93
2017-09-04T18:17:50.688Z,3.80
2017-09-04T18:20:18.336Z,4.23
2017-09-04T18:22:45.954Z,3.53
2017-09-04T18:25:13.559Z,3.30
2017-09-04T18:27:41.116Z,4.00
2017-09-04T18:30:08.718Z,2.97
2017-09-04T18:32:36.571Z,3.73
2017-09-04T18:35:04.182Z,4.40
2017-09-04T18:37:31.717Z,3.53
2017-09-04T18:39:59.251Z,4.30
2017-09-04T18:45:01.655Z,6.00
2017-09-04T18:47:29.206Z,3.03
2017-09-04T18:49:56.796Z,4.93
2017-09-04T18:52:24.475Z,3.60
2017-09-04T18:54:52.036Z,3.20
2017-09-04T18:57:19.680Z,4.10
2017-09-04T18:59:47.246Z,5.50
2017-09-04T19:02:14.803Z,3.83
2017-09-04T19:04:42.374Z,4.10
2017-09-04T19:07:10.883Z,3.23
2017-09-04T19:09:38.444Z,3.57
2017-09-04T19:12:06.047Z,4.00
2017-09-04T19:14:33.671Z,3.83
2017-09-04T19:17:01.260Z,4.20
2017-09-04T19:19:28.785Z,4.10
2017-09-04T19:21:56.398Z,4.23
2017-09-04T19:24:24.026Z,5.30
2017-09-04T19:26:51.568Z,3.40
2017-09-04T19:29:19.098Z,4.73
2017-09-04T19:31:46.671Z,4.53
2017-09-04T19:34:14.258Z,4.47
2017-09-04T19:36:41.848Z,4.80
2017-09-04T19:39:09.357Z,4.60
2017-09-04T19:41:36.920Z,4.27
2017-09-04T19:44:04.438Z,3.90
2017-09-04T19:46:33.809Z,3.97
2017-09-04T19:49:01.350Z,3.73
2017-09-04T19:51:28.949Z,4.17
2017-09-04T19:53:56.493Z,3.47
2017-09-04T19:56:24.076Z,4.23
2017-09-04T19:58:51.693Z,3.77
2017-09-04T20:01:19.202Z,4.77
2017-09-04T20:03:46.870Z,4.60
2017-09-04T20:06:14.384Z,3.73
2017-09-04T20:08:42.703Z,5.60
2017-09-04T20:11:10.297Z,5.43
2017-09-04T20:13:37.885Z,4.23
2017-09-04T20:16:05.444Z,4.40
2017-09-04T20:18:33.033Z,4.93
2017-09-04T20:21:01.370Z,5.70
2017-09-04T20:23:28.914Z,7.50
2017-09-04T20:25:56.560Z,7.80
2017-09-04T20:28:24.122Z,7.07
2017-09-04T20:30:51.667Z,6.83
2017-09-04T20:33:19.213Z,5.00
2017-09-04T20:35:46.761Z,4.40
2017-09-04T20:38:14.305Z,4.70
2017-09-04T20:40:41.854Z,4.47
2017-09-04T20:43:09.401Z,4.40
2017-09-04T20:45:37.010Z,4.53
2017-09-04T20:48:04.535Z,3.77
2017-09-04T20:50:32.150Z,4.00
2017-09-04T20:52:59.660Z,3.67
2017-09-04T20:55:29.207Z,5.27
2017-09-04T20:57:57.720Z,4.07
2017-09-04T21:00:25.279Z,4.70
2017-09-04T21:02:52.806Z,4.23
2017-09-04T21:05:21.521Z,3.93
2017-09-04T21:07:49.203Z,4.20
2017-09-04T21:10:16.792Z,5.63
2017-09-04T21:12:44.334Z,5.00
2017-09-04T21:15:12.780Z,4.67
2017-09-04T21:17:40.370Z,6.67
2017-09-04T21:20:07.957Z,4.40
2017-09-04T21:22:39.601Z,4.80
2017-09-04T21:25:08.398Z,4.80
2017-09-04T21:27:36.525Z,4.30
2017-09-04T21:30:04.266Z,4.30
2017-09-04T21:32:35.048Z,6.40
2017-09-04T21:35:03.874Z,4.23
2017-09-04T21:37:32.594Z,4.13
2017-09-04T21:40:00.256Z,8.20
2017-09-04T21:42:27.947Z,5.57
2017-09-04T21:44:56.625Z,5.50
2017-09-04T21:47:25.130Z,4.47
2017-09-04T21:49:53.908Z,6.53
2017-09-04T21:52:21.459Z,5.20
2017-09-04T21:54:50.786Z,4.90
2017-09-04T21:57:18.337Z,5.10
2017-09-04T21:59:47.995Z,6.23
2017-09-04T22:02:16.645Z,4.40
2017-09-04T22:04:44.224Z,4.03
2017-09-04T22:07:11.778Z,4.60
2017-09-04T22:09:39.328Z,4.17
2017-09-04T22:12:06.830Z,5.03
2017-09-04T22:14:35.929Z,5.23
2017-09-04T22:17:03.474Z,4.50
2017-09-04T22:19:31.151Z,4.50
2017-09-04T22:22:02.643Z,4.60
2017-09-04T22:24:31.615Z,4.97
2017-09-04T22:26:59.233Z,4.53
2017-09-04T22:29:26.825Z,5.07
2017-09-04T22:31:54.337Z,5.37
2017-09-04T22:34:21.918Z,5.23
2017-09-04T22:36:49.457Z,5.37
2017-09-04T22:39:18.262Z,5.57
2017-09-04T22:41:45.906Z,5.60
2017-09-04T22:44:17.213Z,6.13
2017-09-04T22:46:44.766Z,5.23
2017-09-04T22:49:13.291Z,6.23
2017-09-04T22:51:40.807Z,5.43
2017-09-04T22:54:08.307Z,7.13
2017-09-04T22:56:35.802Z,6.17
2017-09-04T22:59:03.316Z,7.27
2017-09-04T23:01:31.735Z,6.90
2017-09-04T23:03:59.247Z,8.93
2017-09-04T23:06:26.736Z,4.97
2017-09-04T23:08:54.254Z,6.33
2017-09-04T23:11:22.630Z,8.20
2017-09-04T23:13:50.136Z,6.23
2017-09-04T23:16:17.616Z,6.00
2017-09-04T23:18:45.119Z,7.60
2017-09-04T23:21:12.615Z,5.57
2017-09-04T23:23:40.103Z,6.23
2017-09-04T23:26:07.607Z,6.60
2017-09-04T23:28:35.093Z,6.03
2017-09-04T23:31:02.593Z,5.83
2017-09-04T23:33:30.085Z,6.27
2017-09-04T23:35:57.588Z,6.10
2017-09-04T23:38:25.071Z,5.83
2017-09-04T23:40:52.582Z,5.90
2017-09-04T23:43:21.005Z,6.23
2017-09-04T23:45:48.511Z,5.47
2017-09-04T23:48:16.011Z,6.73
2017-09-04T23:50:43.519Z,6.10
2017-09-04T23:53:11.032Z,6.40
2017-09-04T23:55:38.523Z,6.50
2017-09-04T23:58:07.950Z,6.50
